OOCL Malaysia — VRME7 — position and weather

sailwx.info

Track history (hours):
 
Tides and Currents Weather Stations Pressure Air Temp Water Temp Dewpoint Dewpoint Depression Visibility Wind Speed Wind Dir Waves Ship Positions

OOCL Malaysia

Last reported at 2018-Aug-21 04:02 UTC. Time now 2018-Aug-21 04:21 UTC.
Position N 32°50' W 079°54'.

Length 366 m; draft 11.9 m.

Type: Cargo ship. MMSI: 477220100.

Date/timePositionNaut miles runAvg speedWind from/ knotsBaromVisibWave heightAir tempDewpointWater temp
2018-Aug-21 04:02N 32°50' W 079°54'0 0.1
2018-Aug-21 03:59N 32°50' W 079°54'0 0.0
2018-Aug-21 03:29N 32°50' W 079°54'0 0.0
2018-Aug-21 02:59N 32°50' W 079°54'0 0.0
2018-Aug-21 02:29N 32°50' W 079°54'0 0.0
2018-Aug-21 02:02N 32°50' W 079°54'0 0.0
2018-Aug-21 01:56N 32°50' W 079°54'0 0.0
2018-Aug-21 01:29N 32°50' W 079°54'0 0.0
2018-Aug-21 01:02N 32°50' W 079°54'0 0.0
2018-Aug-21 00:59N 32°50' W 079°54'0 0.0
2018-Aug-21 00:26N 32°50' W 079°54'0 0.0
2018-Aug-20 23:59N 32°50' W 079°54'0 0.0
2018-Aug-20 23:29N 32°50' W 079°54'0 0.0
2018-Aug-20 22:59N 32°50' W 079°54'0 0.0
2018-Aug-20 22:23N 32°50' W 079°54'0 0.0
2018-Aug-20 21:59N 32°50' W 079°54'0 0.0
2018-Aug-20 21:26N 32°50' W 079°54'0 0.0
2018-Aug-20 20:59N 32°50' W 079°54'0 0.0
2018-Aug-20 20:23N 32°50' W 079°54'0 0.0
2018-Aug-20 20:02N 32°50' W 079°54'0 0.2
2018-Aug-20 19:59N 32°50' W 079°54'0 0.0
2018-Aug-20 19:29N 32°50' W 079°54'0 0.0
2018-Aug-20 19:02N 32°50' W 079°54'0 0.0
2018-Aug-20 18:59N 32°50' W 079°54'0 0.0
2018-Aug-20 18:20N 32°50' W 079°54'0 0.0
2018-Aug-20 18:02N 32°50' W 079°54'0 0.0
2018-Aug-20 17:59N 32°50' W 079°54'0 0.0
2018-Aug-20 17:29N 32°50' W 079°54'0 0.0
2018-Aug-20 17:02N 32°50' W 079°54'0 0.0
2018-Aug-20 16:44N 32°50' W 079°54'0 0.0
2018-Aug-20 16:26N 32°50' W 079°54'0 0.0
2018-Aug-20 16:02N 32°50' W 079°54'0 0.1
2018-Aug-20 15:53N 32°50' W 079°54'0 0.1
2018-Aug-20 15:30N 32°50' W 079°54'1 1.2
2018-Aug-20 15:02N 32°49' W 079°54'0 3.6
2018-Aug-20 15:00N 32°49' W 079°54'7 7.8
2018-Aug-20 14:03N 32°43' W 079°49'113.7
2018-Aug-20 14:00N 32°43' W 079°48'713.9
2018-Aug-20 13:28N 32°39' W 079°40'49 9.3
2018-Aug-20 08:14N 32°03' W 080°18'516.2
2018-Aug-20 07:55N 32°01' W 080°24'716.3
2018-Aug-20 07:30N 31°58' W 080°31'715.0
2018-Aug-20 07:03N 31°57' W 080°39'114.7
2018-Aug-20 07:00N 31°57' W 080°40'611.7
2018-Aug-20 06:30N 31°59' W 080°46'511.1
2018-Aug-20 06:03N 32°02' W 080°51'110.8
2018-Aug-20 06:00N 32°02' W 080°51'4 8.9
2018-Aug-20 05:30N 32°03' W 080°56'4 9.1
2018-Aug-20 05:03N 32°06' W 080°60'0 9.5
2018-Aug-20 05:00N 32°06' W 081°00'2 8.9
2018-Aug-20 04:47N 32°05' W 081°02'2 7.7
2018-Aug-20 04:30N 32°05' W 081°05'3 5.1
2018-Aug-20 04:00N 32°06' W 081°07'2 3.4
2018-Aug-20 03:30N 32°08' W 081°08'1 1.1
2018-Aug-20 02:59N 32°08' W 081°09'0 0.0
2018-Aug-20 02:22N 32°08' W 081°09'0 0.0
2018-Aug-20 01:52N 32°08' W 081°09'0 0.0
2018-Aug-20 01:28N 32°08' W 081°09'0 0.0
2018-Aug-20 00:40N 32°08' W 081°09'0 0.0
2018-Aug-20 00:28N 32°08' W 081°09'0 0.0
2018-Aug-19 23:58N 32°08' W 081°09'0 0.0
2018-Aug-19 23:28N 32°08' W 081°09'0 0.0
2018-Aug-19 22:58N 32°08' W 081°09'0 0.0
2018-Aug-19 22:28N 32°08' W 081°09'0 0.0
2018-Aug-19 21:58N 32°08' W 081°09'0 0.0
2018-Aug-19 21:28N 32°08' W 081°09'0 0.0
2018-Aug-19 20:46N 32°08' W 081°09'0 0.0
2018-Aug-19 20:22N 32°08' W 081°09'0 0.0
2018-Aug-19 19:58N 32°08' W 081°09'0 0.0
2018-Aug-19 19:22N 32°08' W 081°09'0 0.0
2018-Aug-19 18:46N 32°08' W 081°09'0 0.0
2018-Aug-19 18:28N 32°08' W 081°09'0 0.0
2018-Aug-19 17:58N 32°08' W 081°09'0 0.0
2018-Aug-19 17:28N 32°08' W 081°09'0 0.0
2018-Aug-19 16:58N 32°08' W 081°09'0 0.0
2018-Aug-19 16:28N 32°08' W 081°09'0 0.0
2018-Aug-19 15:58N 32°08' W 081°09'0 0.0
2018-Aug-19 15:28N 32°08' W 081°09'0 0.0
2018-Aug-19 14:58N 32°08' W 081°09'0 0.0
2018-Aug-19 14:28N 32°08' W 081°09'0 0.0
2018-Aug-19 13:58N 32°08' W 081°09'0 0.0
2018-Aug-19 13:28N 32°08' W 081°09'0 0.0
2018-Aug-19 12:58N 32°08' W 081°09'0 0.0
2018-Aug-19 12:16N 32°08' W 081°09'0 0.0
2018-Aug-19 11:58N 32°08' W 081°09'0 0.0
2018-Aug-19 11:28N 32°08' W 081°09'0 0.0
2018-Aug-19 10:58N 32°08' W 081°09'0 0.0
2018-Aug-19 10:28N 32°08' W 081°09'0 0.0
2018-Aug-19 09:58N 32°08' W 081°09'0 0.0
2018-Aug-19 09:28N 32°08' W 081°09'0 0.0
2018-Aug-19 08:58N 32°08' W 081°09'0 0.0
2018-Aug-19 08:28N 32°08' W 081°09'0 0.0
2018-Aug-19 07:58N 32°08' W 081°09'0 0.0
2018-Aug-19 07:28N 32°08' W 081°09'0 0.0
2018-Aug-19 06:58N 32°08' W 081°09'0 0.0
2018-Aug-19 06:28N 32°08' W 081°09'0 0.0
2018-Aug-19 05:46N 32°08' W 081°09'0 0.0
2018-Aug-19 05:28N 32°08' W 081°09'0 0.0
2018-Aug-19 04:58N 32°08' W 081°09'0 0.0
2018-Aug-19 04:28N 32°08' W 081°09'0 0.0
2018-Aug-19 03:58N 32°08' W 081°09'0 0.0
2018-Aug-19 03:28N 32°08' W 081°09'0 0.0
2018-Aug-19 02:58N 32°08' W 081°09'0 0.0
2018-Aug-19 02:28N 32°08' W 081°09'0 0.1
2018-Aug-19 01:58N 32°08' W 081°09'0 0.1
2018-Aug-19 01:28N 32°08' W 081°09'0 0.0
2018-Aug-19 00:58N 32°08' W 081°09'0 0.0
2018-Aug-19 00:28N 32°08' W 081°09'0 0.0
2018-Aug-18 23:58N 32°08' W 081°09'0 0.0
2018-Aug-18 23:28N 32°08' W 081°09'0 0.0
2018-Aug-18 22:58N 32°08' W 081°09'0 0.0
2018-Aug-18 22:28N 32°08' W 081°09'0 0.0
2018-Aug-18 21:58N 32°08' W 081°09'0 0.0
2018-Aug-18 21:16N 32°08' W 081°09'0 0.0
2018-Aug-18 20:58N 32°08' W 081°09'0 0.0
2018-Aug-18 20:28N 32°08' W 081°09'0 0.0
2018-Aug-18 19:58N 32°08' W 081°09'0 0.0
2018-Aug-18 19:28N 32°08' W 081°09'0 0.0
2018-Aug-18 18:58N 32°08' W 081°09'0 0.0
2018-Aug-18 18:22N 32°08' W 081°09'0 0.0
2018-Aug-18 17:58N 32°08' W 081°09'0 0.0
2018-Aug-18 17:28N 32°08' W 081°09'0 0.1
2018-Aug-18 17:00N 32°08' W 081°09'1 2.4
2018-Aug-18 16:30N 32°07' W 081°08'2 4.1
2018-Aug-18 16:00N 32°06' W 081°06'3 5.5
2018-Aug-18 15:30N 32°05' W 081°03'4 7.8
2018-Aug-18 15:00N 32°05' W 080°59'510.4
2018-Aug-18 14:30N 32°02' W 080°53'612.4
2018-Aug-18 14:00N 31°60' W 080°47'612.8
2018-Aug-18 13:30N 31°57' W 080°40'4 7.8
2018-Aug-18 13:00N 31°56' W 080°35'4 7.7
2018-Aug-18 12:30N 31°58' W 080°31'4 8.8
2018-Aug-18 12:00N 31°60' W 080°27'5 9.2
2018-Aug-18 11:30N 32°02' W 080°22'5 9.5
2018-Aug-18 11:00N 32°03' W 080°16'39 9.1
2018-Aug-18 06:44N 32°18' W 079°33'20711.1
2018-Aug-17 12:06N 34°17' W 076°11'1917.0
2018-Aug-17 11:00N 34°29' W 075°54'816.3
2018-Aug-17 10:28N 34°35' W 075°46'715.9
2018-Aug-17 10:01N 34°40' W 075°39'815.6
2018-Aug-17 09:29N 34°45' W 075°32'25318.0
2018-Aug-16 19:25N 38°48' W 074°03'2418.9
2018-Aug-16 18:09N 39°12' W 073°59'318.7
2018-Aug-16 18:00N 39°14' W 073°58'918.6
2018-Aug-16 17:31N 39°23' W 073°55'918.7
2018-Aug-16 17:01N 39°33' W 073°54'612.2
2018-Aug-16 16:30N 39°39' W 073°53'3 6.8
2018-Aug-16 16:00N 39°42' W 073°52'918.0
2018-Aug-16 15:30N 39°51' W 073°51'918.4
2018-Aug-16 15:01N 40°00' W 073°50'918.4
2018-Aug-16 14:30N 40°09' W 073°50'918.4
2018-Aug-16 14:00N 40°19' W 073°49'714.7
2018-Aug-16 13:30N 40°26' W 073°49'510.9
2018-Aug-16 13:00N 40°29' W 073°54'713.1
2018-Aug-16 12:30N 40°33' W 074°02'612.7
2018-Aug-16 12:00N 40°39' W 074°04'3 6.3
2018-Aug-16 11:31N 40°39' W 074°08'2 3.5
2018-Aug-16 11:01N 40°40' W 074°08'1 1.5
2018-Aug-16 10:29N 40°41' W 074°09'0 0.0
2018-Aug-16 09:59N 40°41' W 074°09'0 0.0
2018-Aug-16 09:29N 40°41' W 074°09'0 0.0
2018-Aug-16 08:59N 40°41' W 074°09'0 0.0
2018-Aug-16 08:29N 40°41' W 074°09'0 0.0
2018-Aug-16 07:59N 40°41' W 074°09'0 0.0
2018-Aug-16 07:05N 40°41' W 074°09'0 0.1
2018-Aug-16 07:00N 40°41' W 074°09'0 0.0
2018-Aug-16 06:30N 40°41' W 074°09'0 0.0
2018-Aug-16 06:00N 40°41' W 074°09'0 0.0
2018-Aug-16 05:30N 40°41' W 074°09'0 0.0
2018-Aug-16 04:21N 40°41' W 074°09'0 0.0
2018-Aug-16 03:57N 40°41' W 074°09'0 0.0
2018-Aug-16 03:12N 40°41' W 074°09'0 0.0
2018-Aug-16 01:59N 40°41' W 074°09'0 0.0
2018-Aug-16 01:29N 40°41' W 074°09'0 0.0
2018-Aug-16 00:59N 40°41' W 074°09'0 0.0
2018-Aug-16 00:29N 40°41' W 074°09'0 0.0
2018-Aug-15 23:56N 40°41' W 074°09'0 0.0
2018-Aug-15 22:35N 40°41' W 074°09'0 0.0
2018-Aug-15 22:23N 40°41' W 074°09'0 0.0
2018-Aug-15 21:47N 40°41' W 074°09'0 0.0
2018-Aug-15 21:29N 40°41' W 074°09'0 0.0
2018-Aug-15 20:59N 40°41' W 074°09'0 0.0
2018-Aug-15 20:29N 40°41' W 074°09'0 0.0
2018-Aug-15 19:56N 40°41' W 074°09'0 0.0
2018-Aug-15 19:11N 40°41' W 074°09'0 0.0
2018-Aug-15 18:53N 40°41' W 074°09'0 0.0
2018-Aug-15 18:29N 40°41' W 074°09'0 0.0
2018-Aug-15 17:59N 40°41' W 074°09'0 0.0
2018-Aug-15 17:29N 40°41' W 074°09'0 0.0
2018-Aug-15 16:02N 40°41' W 074°09'0 0.0
2018-Aug-15 10:17N 40°41' W 074°09'0 0.0
2018-Aug-15 09:59N 40°41' W 074°09'0 0.0
2018-Aug-15 09:29N 40°41' W 074°09'0 0.0
2018-Aug-15 08:59N 40°41' W 074°09'0 0.0
2018-Aug-15 08:26N 40°41' W 074°09'0 0.0
2018-Aug-15 07:59N 40°41' W 074°09'0 0.0
2018-Aug-15 07:29N 40°41' W 074°09'0 0.0
2018-Aug-15 06:59N 40°41' W 074°09'0 0.0
2018-Aug-15 06:29N 40°41' W 074°09'0 0.0
2018-Aug-15 05:59N 40°41' W 074°09'0 0.0
2018-Aug-15 05:29N 40°41' W 074°09'0 0.0
2018-Aug-15 04:59N 40°41' W 074°09'0 0.0
2018-Aug-15 04:29N 40°41' W 074°09'0 0.0
2018-Aug-15 03:59N 40°41' W 074°09'0 0.0
2018-Aug-15 03:29N 40°41' W 074°09'0 0.0
2018-Aug-15 02:59N 40°41' W 074°09'0 0.0
2018-Aug-15 02:29N 40°41' W 074°09'0 0.0
2018-Aug-15 01:59N 40°41' W 074°09'0 0.0
2018-Aug-15 01:29N 40°41' W 074°09'0 0.0
2018-Aug-15 00:59N 40°41' W 074°09'0 0.0
2018-Aug-15 00:29N 40°41' W 074°09'0 0.0
2018-Aug-14 23:59N 40°41' W 074°09'0 0.0
2018-Aug-14 23:29N 40°41' W 074°09'0 0.0
2018-Aug-14 22:59N 40°41' W 074°09'0 0.0
2018-Aug-14 22:29N 40°41' W 074°09'0 0.0
2018-Aug-14 21:56N 40°41' W 074°09'0 0.0
2018-Aug-14 21:29N 40°41' W 074°09'0 0.0
2018-Aug-14 20:56N 40°41' W 074°09'0 0.0
2018-Aug-14 20:26N 40°41' W 074°09'0 0.0
2018-Aug-14 19:59N 40°41' W 074°09'0 0.0
2018-Aug-14 19:26N 40°41' W 074°09'0 0.0
2018-Aug-14 18:59N 40°41' W 074°09'0 0.0
2018-Aug-14 18:29N 40°41' W 074°09'0 0.0
2018-Aug-14 17:59N 40°41' W 074°09'0 0.0
2018-Aug-14 17:29N 40°41' W 074°09'0 0.0
2018-Aug-14 16:56N 40°41' W 074°09'0 0.0
2018-Aug-14 16:29N 40°41' W 074°09'0 0.0
2018-Aug-14 15:59N 40°41' W 074°09'0 0.0
2018-Aug-14 15:29N 40°41' W 074°09'0 0.0
2018-Aug-14 14:53N 40°41' W 074°09'0 0.0
2018-Aug-14 14:29N 40°41' W 074°09'0 0.0
2018-Aug-14 13:59N 40°41' W 074°09'0 0.0
2018-Aug-14 13:29N 40°41' W 074°09'0 0.0
2018-Aug-14 12:59N 40°41' W 074°09'0 0.0
2018-Aug-14 12:29N 40°41' W 074°09'0 0.0
2018-Aug-14 11:59N 40°41' W 074°09'0 0.0
2018-Aug-14 11:29N 40°41' W 074°09'0 0.0
2018-Aug-14 10:56N 40°41' W 074°09'0 0.0
2018-Aug-14 10:29N 40°41' W 074°09'0 0.0
2018-Aug-14 09:59N 40°41' W 074°09'0 0.0
2018-Aug-14 09:29N 40°41' W 074°09'0 0.0
2018-Aug-14 08:59N 40°41' W 074°09'0 0.0
2018-Aug-14 08:29N 40°41' W 074°09'0 0.0
2018-Aug-14 07:59N 40°41' W 074°09'0 0.0
2018-Aug-14 07:29N 40°41' W 074°09'0 0.0
2018-Aug-14 06:59N 40°41' W 074°09'0 0.0
2018-Aug-14 06:29N 40°41' W 074°09'0 0.0
2018-Aug-14 05:59N 40°41' W 074°09'0 0.0
2018-Aug-14 05:29N 40°41' W 074°09'0 0.0
2018-Aug-14 04:59N 40°41' W 074°09'0 0.0
2018-Aug-14 04:29N 40°41' W 074°09'0 0.0
2018-Aug-14 03:59N 40°41' W 074°09'0 0.0
2018-Aug-14 03:29N 40°41' W 074°09'0 0.0
2018-Aug-14 02:59N 40°41' W 074°09'0 0.0
2018-Aug-14 02:29N 40°41' W 074°09'0 0.0
2018-Aug-14 01:59N 40°41' W 074°09'0 0.0
2018-Aug-14 01:29N 40°41' W 074°09'0 0.0
2018-Aug-14 00:59N 40°41' W 074°09'0 0.0
2018-Aug-14 00:26N 40°41' W 074°09'0 0.0
2018-Aug-13 23:59N 40°41' W 074°09'0 0.0
2018-Aug-13 23:29N 40°41' W 074°09'0 0.0
2018-Aug-13 22:59N 40°41' W 074°09'0 0.0
2018-Aug-13 22:29N 40°41' W 074°09'0 0.0
2018-Aug-13 21:59N 40°41' W 074°09'0 0.0
2018-Aug-13 21:29N 40°41' W 074°09'0 0.0
2018-Aug-13 20:59N 40°41' W 074°09'0 0.0
2018-Aug-13 20:29N 40°41' W 074°09'0 0.0
2018-Aug-13 19:53N 40°41' W 074°09'0 0.0
2018-Aug-13 19:29N 40°41' W 074°09'0 0.0
2018-Aug-13 18:59N 40°41' W 074°09'0 0.0
2018-Aug-13 18:29N 40°41' W 074°09'0 0.0
2018-Aug-13 17:59N 40°41' W 074°09'0 0.0
2018-Aug-13 17:29N 40°41' W 074°09'0 0.0
2018-Aug-13 16:59N 40°41' W 074°09'0 0.0
2018-Aug-13 16:29N 40°41' W 074°09'0 0.0
2018-Aug-13 15:59N 40°41' W 074°09'0 0.0
2018-Aug-13 15:29N 40°41' W 074°09'0 0.0
2018-Aug-13 14:59N 40°41' W 074°09'0 0.0
2018-Aug-13 14:29N 40°41' W 074°09'0 0.0
2018-Aug-13 13:56N 40°41' W 074°09'0 0.0
2018-Aug-13 13:29N 40°41' W 074°09'0 0.0
2018-Aug-13 12:59N 40°41' W 074°09'0 0.0
2018-Aug-13 12:29N 40°41' W 074°09'0 0.0
2018-Aug-13 11:59N 40°41' W 074°09'0 0.0
2018-Aug-13 11:29N 40°41' W 074°09'0 0.0
2018-Aug-13 10:59N 40°41' W 074°09'0 0.0
2018-Aug-13 10:29N 40°41' W 074°09'0 0.0
2018-Aug-13 09:59N 40°41' W 074°09'1 1.1
2018-Aug-13 09:30N 40°41' W 074°08'2 4.1
2018-Aug-13 09:00N 40°39' W 074°09'3 5.9
2018-Aug-13 08:30N 40°39' W 074°05'3 6.9
2018-Aug-13 08:00N 40°36' W 074°02'510.9
2018-Aug-13 07:30N 40°31' W 073°59'611.5
2018-Aug-13 07:00N 40°28' W 073°53'5 9.2
2018-Aug-13 06:30N 40°26' W 073°47'3 5.9
2018-Aug-13 05:57N 40°24' W 073°44'  
Track history (hours):
 
Tides and Currents Weather Stations Pressure Air Temp Water Temp Dewpoint Dewpoint Depression Visibility Wind Speed Wind Dir Waves Ship Positions

OOCL Malaysia

Last reported at 2018-Aug-21 04:02 UTC. Time now 2018-Aug-21 04:21 UTC.
Position N 32°50' W 079°54'.

Length 366 m; draft 11.9 m.

Type: Cargo ship. MMSI: 477220100.

Date/timePositionNaut miles runAvg speedWind from/ knotsBaromVisibWave heightAir tempDewpointWater temp
2018-Aug-21 04:02N 32°50' W 079°54'0 0.1
2018-Aug-21 03:59N 32°50' W 079°54'0 0.0
2018-Aug-21 03:29N 32°50' W 079°54'0 0.0
2018-Aug-21 02:59N 32°50' W 079°54'0 0.0
2018-Aug-21 02:29N 32°50' W 079°54'0 0.0
2018-Aug-21 02:02N 32°50' W 079°54'0 0.0
2018-Aug-21 01:56N 32°50' W 079°54'0 0.0
2018-Aug-21 01:29N 32°50' W 079°54'0 0.0
2018-Aug-21 01:02N 32°50' W 079°54'0 0.0
2018-Aug-21 00:59N 32°50' W 079°54'0 0.0
2018-Aug-21 00:26N 32°50' W 079°54'0 0.0
2018-Aug-20 23:59N 32°50' W 079°54'0 0.0
2018-Aug-20 23:29N 32°50' W 079°54'0 0.0
2018-Aug-20 22:59N 32°50' W 079°54'0 0.0
2018-Aug-20 22:23N 32°50' W 079°54'0 0.0
2018-Aug-20 21:59N 32°50' W 079°54'0 0.0
2018-Aug-20 21:26N 32°50' W 079°54'0 0.0
2018-Aug-20 20:59N 32°50' W 079°54'0 0.0
2018-Aug-20 20:23N 32°50' W 079°54'0 0.0
2018-Aug-20 20:02N 32°50' W 079°54'0 0.2
2018-Aug-20 19:59N 32°50' W 079°54'0 0.0
2018-Aug-20 19:29N 32°50' W 079°54'0 0.0
2018-Aug-20 19:02N 32°50' W 079°54'0 0.0
2018-Aug-20 18:59N 32°50' W 079°54'0 0.0
2018-Aug-20 18:20N 32°50' W 079°54'0 0.0
2018-Aug-20 18:02N 32°50' W 079°54'0 0.0
2018-Aug-20 17:59N 32°50' W 079°54'0 0.0
2018-Aug-20 17:29N 32°50' W 079°54'0 0.0
2018-Aug-20 17:02N 32°50' W 079°54'0 0.0
2018-Aug-20 16:44N 32°50' W 079°54'0 0.0
2018-Aug-20 16:26N 32°50' W 079°54'0 0.0
2018-Aug-20 16:02N 32°50' W 079°54'0 0.1
2018-Aug-20 15:53N 32°50' W 079°54'0 0.1
2018-Aug-20 15:30N 32°50' W 079°54'1 1.2
2018-Aug-20 15:02N 32°49' W 079°54'0 3.6
2018-Aug-20 15:00N 32°49' W 079°54'7 7.8
2018-Aug-20 14:03N 32°43' W 079°49'113.7
2018-Aug-20 14:00N 32°43' W 079°48'713.9
2018-Aug-20 13:28N 32°39' W 079°40'49 9.3
2018-Aug-20 08:14N 32°03' W 080°18'516.2
2018-Aug-20 07:55N 32°01' W 080°24'716.3
2018-Aug-20 07:30N 31°58' W 080°31'715.0
2018-Aug-20 07:03N 31°57' W 080°39'114.7
2018-Aug-20 07:00N 31°57' W 080°40'611.7
2018-Aug-20 06:30N 31°59' W 080°46'511.1
2018-Aug-20 06:03N 32°02' W 080°51'110.8
2018-Aug-20 06:00N 32°02' W 080°51'4 8.9
2018-Aug-20 05:30N 32°03' W 080°56'4 9.1
2018-Aug-20 05:03N 32°06' W 080°60'0 9.5
2018-Aug-20 05:00N 32°06' W 081°00'2 8.9
2018-Aug-20 04:47N 32°05' W 081°02'2 7.7
2018-Aug-20 04:30N 32°05' W 081°05'3 5.1
2018-Aug-20 04:00N 32°06' W 081°07'2 3.4
2018-Aug-20 03:30N 32°08' W 081°08'1 1.1
2018-Aug-20 02:59N 32°08' W 081°09'0 0.0
2018-Aug-20 02:22N 32°08' W 081°09'0 0.0
2018-Aug-20 01:52N 32°08' W 081°09'0 0.0
2018-Aug-20 01:28N 32°08' W 081°09'0 0.0
2018-Aug-20 00:40N 32°08' W 081°09'0 0.0
2018-Aug-20 00:28N 32°08' W 081°09'0 0.0
2018-Aug-19 23:58N 32°08' W 081°09'0 0.0
2018-Aug-19 23:28N 32°08' W 081°09'0 0.0
2018-Aug-19 22:58N 32°08' W 081°09'0 0.0
2018-Aug-19 22:28N 32°08' W 081°09'0 0.0
2018-Aug-19 21:58N 32°08' W 081°09'0 0.0
2018-Aug-19 21:28N 32°08' W 081°09'0 0.0
2018-Aug-19 20:46N 32°08' W 081°09'0 0.0
2018-Aug-19 20:22N 32°08' W 081°09'0 0.0
2018-Aug-19 19:58N 32°08' W 081°09'0 0.0
2018-Aug-19 19:22N 32°08' W 081°09'0 0.0
2018-Aug-19 18:46N 32°08' W 081°09'0 0.0
2018-Aug-19 18:28N 32°08' W 081°09'0 0.0
2018-Aug-19 17:58N 32°08' W 081°09'0 0.0
2018-Aug-19 17:28N 32°08' W 081°09'0 0.0
2018-Aug-19 16:58N 32°08' W 081°09'0 0.0
2018-Aug-19 16:28N 32°08' W 081°09'0 0.0
2018-Aug-19 15:58N 32°08' W 081°09'0 0.0
2018-Aug-19 15:28N 32°08' W 081°09'0 0.0
2018-Aug-19 14:58N 32°08' W 081°09'0 0.0
2018-Aug-19 14:28N 32°08' W 081°09'0 0.0
2018-Aug-19 13:58N 32°08' W 081°09'0 0.0
2018-Aug-19 13:28N 32°08' W 081°09'0 0.0
2018-Aug-19 12:58N 32°08' W 081°09'0 0.0
2018-Aug-19 12:16N 32°08' W 081°09'0 0.0
2018-Aug-19 11:58N 32°08' W 081°09'0 0.0
2018-Aug-19 11:28N 32°08' W 081°09'0 0.0
2018-Aug-19 10:58N 32°08' W 081°09'0 0.0
2018-Aug-19 10:28N 32°08' W 081°09'0 0.0
2018-Aug-19 09:58N 32°08' W 081°09'0 0.0
2018-Aug-19 09:28N 32°08' W 081°09'0 0.0
2018-Aug-19 08:58N 32°08' W 081°09'0 0.0
2018-Aug-19 08:28N 32°08' W 081°09'0 0.0
2018-Aug-19 07:58N 32°08' W 081°09'0 0.0
2018-Aug-19 07:28N 32°08' W 081°09'0 0.0
2018-Aug-19 06:58N 32°08' W 081°09'0 0.0
2018-Aug-19 06:28N 32°08' W 081°09'0 0.0
2018-Aug-19 05:46N 32°08' W 081°09'0 0.0
2018-Aug-19 05:28N 32°08' W 081°09'0 0.0
2018-Aug-19 04:58N 32°08' W 081°09'0 0.0
2018-Aug-19 04:28N 32°08' W 081°09'0 0.0
2018-Aug-19 03:58N 32°08' W 081°09'0 0.0
2018-Aug-19 03:28N 32°08' W 081°09'0 0.0
2018-Aug-19 02:58N 32°08' W 081°09'0 0.0
2018-Aug-19 02:28N 32°08' W 081°09'0 0.1
2018-Aug-19 01:58N 32°08' W 081°09'0 0.1
2018-Aug-19 01:28N 32°08' W 081°09'0 0.0
2018-Aug-19 00:58N 32°08' W 081°09'0 0.0
2018-Aug-19 00:28N 32°08' W 081°09'0 0.0
2018-Aug-18 23:58N 32°08' W 081°09'0 0.0
2018-Aug-18 23:28N 32°08' W 081°09'0 0.0
2018-Aug-18 22:58N 32°08' W 081°09'0 0.0
2018-Aug-18 22:28N 32°08' W 081°09'0 0.0
2018-Aug-18 21:58N 32°08' W 081°09'0 0.0
2018-Aug-18 21:16N 32°08' W 081°09'0 0.0
2018-Aug-18 20:58N 32°08' W 081°09'0 0.0
2018-Aug-18 20:28N 32°08' W 081°09'0 0.0
2018-Aug-18 19:58N 32°08' W 081°09'0 0.0
2018-Aug-18 19:28N 32°08' W 081°09'0 0.0
2018-Aug-18 18:58N 32°08' W 081°09'0 0.0
2018-Aug-18 18:22N 32°08' W 081°09'0 0.0
2018-Aug-18 17:58N 32°08' W 081°09'0 0.0
2018-Aug-18 17:28N 32°08' W 081°09'0 0.1
2018-Aug-18 17:00N 32°08' W 081°09'1 2.4
2018-Aug-18 16:30N 32°07' W 081°08'2 4.1
2018-Aug-18 16:00N 32°06' W 081°06'3 5.5
2018-Aug-18 15:30N 32°05' W 081°03'4 7.8
2018-Aug-18 15:00N 32°05' W 080°59'510.4
2018-Aug-18 14:30N 32°02' W 080°53'612.4
2018-Aug-18 14:00N 31°60' W 080°47'612.8
2018-Aug-18 13:30N 31°57' W 080°40'4 7.8
2018-Aug-18 13:00N 31°56' W 080°35'4 7.7
2018-Aug-18 12:30N 31°58' W 080°31'4 8.8
2018-Aug-18 12:00N 31°60' W 080°27'5 9.2
2018-Aug-18 11:30N 32°02' W 080°22'5 9.5
2018-Aug-18 11:00N 32°03' W 080°16'39 9.1
2018-Aug-18 06:44N 32°18' W 079°33'20711.1
2018-Aug-17 12:06N 34°17' W 076°11'1917.0
2018-Aug-17 11:00N 34°29' W 075°54'816.3
2018-Aug-17 10:28N 34°35' W 075°46'715.9
2018-Aug-17 10:01N 34°40' W 075°39'815.6
2018-Aug-17 09:29N 34°45' W 075°32'25318.0
2018-Aug-16 19:25N 38°48' W 074°03'2418.9
2018-Aug-16 18:09N 39°12' W 073°59'318.7
2018-Aug-16 18:00N 39°14' W 073°58'918.6
2018-Aug-16 17:31N 39°23' W 073°55'918.7
2018-Aug-16 17:01N 39°33' W 073°54'612.2
2018-Aug-16 16:30N 39°39' W 073°53'3 6.8
2018-Aug-16 16:00N 39°42' W 073°52'918.0
2018-Aug-16 15:30N 39°51' W 073°51'918.4
2018-Aug-16 15:01N 40°00' W 073°50'918.4
2018-Aug-16 14:30N 40°09' W 073°50'918.4
2018-Aug-16 14:00N 40°19' W 073°49'714.7
2018-Aug-16 13:30N 40°26' W 073°49'510.9
2018-Aug-16 13:00N 40°29' W 073°54'713.1
2018-Aug-16 12:30N 40°33' W 074°02'612.7
2018-Aug-16 12:00N 40°39' W 074°04'3 6.3
2018-Aug-16 11:31N 40°39' W 074°08'2 3.5
2018-Aug-16 11:01N 40°40' W 074°08'1 1.5
2018-Aug-16 10:29N 40°41' W 074°09'0 0.0
2018-Aug-16 09:59N 40°41' W 074°09'0 0.0
2018-Aug-16 09:29N 40°41' W 074°09'0 0.0
2018-Aug-16 08:59N 40°41' W 074°09'0 0.0
2018-Aug-16 08:29N 40°41' W 074°09'0 0.0
2018-Aug-16 07:59N 40°41' W 074°09'0 0.0
2018-Aug-16 07:05N 40°41' W 074°09'0 0.1
2018-Aug-16 07:00N 40°41' W 074°09'0 0.0
2018-Aug-16 06:30N 40°41' W 074°09'0 0.0
2018-Aug-16 06:00N 40°41' W 074°09'0 0.0
2018-Aug-16 05:30N 40°41' W 074°09'0 0.0
2018-Aug-16 04:21N 40°41' W 074°09'0 0.0
2018-Aug-16 03:57N 40°41' W 074°09'0 0.0
2018-Aug-16 03:12N 40°41' W 074°09'0 0.0
2018-Aug-16 01:59N 40°41' W 074°09'0 0.0
2018-Aug-16 01:29N 40°41' W 074°09'0 0.0
2018-Aug-16 00:59N 40°41' W 074°09'0 0.0
2018-Aug-16 00:29N 40°41' W 074°09'0 0.0
2018-Aug-15 23:56N 40°41' W 074°09'0 0.0
2018-Aug-15 22:35N 40°41' W 074°09'0 0.0
2018-Aug-15 22:23N 40°41' W 074°09'0 0.0
2018-Aug-15 21:47N 40°41' W 074°09'0 0.0
2018-Aug-15 21:29N 40°41' W 074°09'0 0.0
2018-Aug-15 20:59N 40°41' W 074°09'0 0.0
2018-Aug-15 20:29N 40°41' W 074°09'0 0.0
2018-Aug-15 19:56N 40°41' W 074°09'0 0.0
2018-Aug-15 19:11N 40°41' W 074°09'0 0.0
2018-Aug-15 18:53N 40°41' W 074°09'0 0.0
2018-Aug-15 18:29N 40°41' W 074°09'0 0.0
2018-Aug-15 17:59N 40°41' W 074°09'0 0.0
2018-Aug-15 17:29N 40°41' W 074°09'0 0.0
2018-Aug-15 16:02N 40°41' W 074°09'0 0.0
2018-Aug-15 10:17N 40°41' W 074°09'0 0.0
2018-Aug-15 09:59N 40°41' W 074°09'0 0.0
2018-Aug-15 09:29N 40°41' W 074°09'0 0.0
2018-Aug-15 08:59N 40°41' W 074°09'0 0.0
2018-Aug-15 08:26N 40°41' W 074°09'0 0.0
2018-Aug-15 07:59N 40°41' W 074°09'0 0.0
2018-Aug-15 07:29N 40°41' W 074°09'0 0.0
2018-Aug-15 06:59N 40°41' W 074°09'0 0.0
2018-Aug-15 06:29N 40°41' W 074°09'0 0.0
2018-Aug-15 05:59N 40°41' W 074°09'0 0.0
2018-Aug-15 05:29N 40°41' W 074°09'0 0.0
2018-Aug-15 04:59N 40°41' W 074°09'0 0.0
2018-Aug-15 04:29N 40°41' W 074°09'0 0.0
2018-Aug-15 03:59N 40°41' W 074°09'0 0.0
2018-Aug-15 03:29N 40°41' W 074°09'0 0.0
2018-Aug-15 02:59N 40°41' W 074°09'0 0.0
2018-Aug-15 02:29N 40°41' W 074°09'0 0.0
2018-Aug-15 01:59N 40°41' W 074°09'0 0.0
2018-Aug-15 01:29N 40°41' W 074°09'0 0.0
2018-Aug-15 00:59N 40°41' W 074°09'0 0.0
2018-Aug-15 00:29N 40°41' W 074°09'0 0.0
2018-Aug-14 23:59N 40°41' W 074°09'0 0.0
2018-Aug-14 23:29N 40°41' W 074°09'0 0.0
2018-Aug-14 22:59N 40°41' W 074°09'0 0.0
2018-Aug-14 22:29N 40°41' W 074°09'0 0.0
2018-Aug-14 21:56N 40°41' W 074°09'0 0.0
2018-Aug-14 21:29N 40°41' W 074°09'0 0.0
2018-Aug-14 20:56N 40°41' W 074°09'0 0.0
2018-Aug-14 20:26N 40°41' W 074°09'0 0.0
2018-Aug-14 19:59N 40°41' W 074°09'0 0.0
2018-Aug-14 19:26N 40°41' W 074°09'0 0.0
2018-Aug-14 18:59N 40°41' W 074°09'0 0.0
2018-Aug-14 18:29N 40°41' W 074°09'0 0.0
2018-Aug-14 17:59N 40°41' W 074°09'0 0.0
2018-Aug-14 17:29N 40°41' W 074°09'0 0.0
2018-Aug-14 16:56N 40°41' W 074°09'0 0.0
2018-Aug-14 16:29N 40°41' W 074°09'0 0.0
2018-Aug-14 15:59N 40°41' W 074°09'0 0.0
2018-Aug-14 15:29N 40°41' W 074°09'0 0.0
2018-Aug-14 14:53N 40°41' W 074°09'0 0.0
2018-Aug-14 14:29N 40°41' W 074°09'0 0.0
2018-Aug-14 13:59N 40°41' W 074°09'0 0.0
2018-Aug-14 13:29N 40°41' W 074°09'0 0.0
2018-Aug-14 12:59N 40°41' W 074°09'0 0.0
2018-Aug-14 12:29N 40°41' W 074°09'0 0.0
2018-Aug-14 11:59N 40°41' W 074°09'0 0.0
2018-Aug-14 11:29N 40°41' W 074°09'0 0.0
2018-Aug-14 10:56N 40°41' W 074°09'0 0.0
2018-Aug-14 10:29N 40°41' W 074°09'0 0.0
2018-Aug-14 09:59N 40°41' W 074°09'0 0.0
2018-Aug-14 09:29N 40°41' W 074°09'0 0.0
2018-Aug-14 08:59N 40°41' W 074°09'0 0.0
2018-Aug-14 08:29N 40°41' W 074°09'0 0.0
2018-Aug-14 07:59N 40°41' W 074°09'0 0.0
2018-Aug-14 07:29N 40°41' W 074°09'0 0.0
2018-Aug-14 06:59N 40°41' W 074°09'0 0.0
2018-Aug-14 06:29N 40°41' W 074°09'0 0.0
2018-Aug-14 05:59N 40°41' W 074°09'0 0.0
2018-Aug-14 05:29N 40°41' W 074°09'0 0.0
2018-Aug-14 04:59N 40°41' W 074°09'0 0.0
2018-Aug-14 04:29N 40°41' W 074°09'0 0.0
2018-Aug-14 03:59N 40°41' W 074°09'0 0.0
2018-Aug-14 03:29N 40°41' W 074°09'0 0.0
2018-Aug-14 02:59N 40°41' W 074°09'0 0.0
2018-Aug-14 02:29N 40°41' W 074°09'0 0.0
2018-Aug-14 01:59N 40°41' W 074°09'0 0.0
2018-Aug-14 01:29N 40°41' W 074°09'0 0.0
2018-Aug-14 00:59N 40°41' W 074°09'0 0.0
2018-Aug-14 00:26N 40°41' W 074°09'0 0.0
2018-Aug-13 23:59N 40°41' W 074°09'0 0.0
2018-Aug-13 23:29N 40°41' W 074°09'0 0.0
2018-Aug-13 22:59N 40°41' W 074°09'0 0.0
2018-Aug-13 22:29N 40°41' W 074°09'0 0.0
2018-Aug-13 21:59N 40°41' W 074°09'0 0.0
2018-Aug-13 21:29N 40°41' W 074°09'0 0.0
2018-Aug-13 20:59N 40°41' W 074°09'0 0.0
2018-Aug-13 20:29N 40°41' W 074°09'0 0.0
2018-Aug-13 19:53N 40°41' W 074°09'0 0.0
2018-Aug-13 19:29N 40°41' W 074°09'0 0.0
2018-Aug-13 18:59N 40°41' W 074°09'0 0.0
2018-Aug-13 18:29N 40°41' W 074°09'0 0.0
2018-Aug-13 17:59N 40°41' W 074°09'0 0.0
2018-Aug-13 17:29N 40°41' W 074°09'0 0.0
2018-Aug-13 16:59N 40°41' W 074°09'0 0.0
2018-Aug-13 16:29N 40°41' W 074°09'0 0.0
2018-Aug-13 15:59N 40°41' W 074°09'0 0.0
2018-Aug-13 15:29N 40°41' W 074°09'0 0.0
2018-Aug-13 14:59N 40°41' W 074°09'0 0.0
2018-Aug-13 14:29N 40°41' W 074°09'0 0.0
2018-Aug-13 13:56N 40°41' W 074°09'0 0.0
2018-Aug-13 13:29N 40°41' W 074°09'0 0.0
2018-Aug-13 12:59N 40°41' W 074°09'0 0.0
2018-Aug-13 12:29N 40°41' W 074°09'0 0.0
2018-Aug-13 11:59N 40°41' W 074°09'0 0.0
2018-Aug-13 11:29N 40°41' W 074°09'0 0.0
2018-Aug-13 10:59N 40°41' W 074°09'0 0.0
2018-Aug-13 10:29N 40°41' W 074°09'0 0.0
2018-Aug-13 09:59N 40°41' W 074°09'1 1.1
2018-Aug-13 09:30N 40°41' W 074°08'2 4.1
2018-Aug-13 09:00N 40°39' W 074°09'3 5.9
2018-Aug-13 08:30N 40°39' W 074°05'3 6.9
2018-Aug-13 08:00N 40°36' W 074°02'510.9
2018-Aug-13 07:30N 40°31' W 073°59'611.5
2018-Aug-13 07:00N 40°28' W 073°53'5 9.2
2018-Aug-13 06:30N 40°26' W 073°47'3 5.9
2018-Aug-13 05:57N 40°24' W 073°44'  

Dump ship's entire track history